createdAt,value
2023-01-13T00:01:08.519Z,100354.16
2023-01-13T00:03:35.835Z,100361.78
2023-01-13T00:06:02.586Z,100381.63
2023-01-13T00:08:29.510Z,100386.28
2023-01-13T00:10:56.156Z,100395.75
2023-01-13T00:13:26.716Z,100386.03
2023-01-13T00:16:03.201Z,100382.25
2023-01-13T00:18:29.861Z,100377.63
2023-01-13T00:21:00.255Z,100378.66
2023-01-13T00:23:28.630Z,100367.63
2023-01-13T00:25:56.834Z,100368.41
2023-01-13T00:28:23.431Z,100344.66
2023-01-13T00:30:51.253Z,100342.97
2023-01-13T00:33:18.179Z,100346.34
2023-01-13T00:35:45.033Z,100337.66
2023-01-13T00:38:11.971Z,100334.22
2023-01-13T00:40:38.528Z,100326.44
2023-01-13T00:43:23.280Z,100328.63
2023-01-13T00:45:52.945Z,100320.44
2023-01-13T00:48:21.030Z,100323.81
2023-01-13T00:50:54.437Z,100322.84
2023-01-13T00:53:21.085Z,100329.03
2023-01-13T00:55:47.734Z,100327.81
2023-01-13T00:58:14.357Z,100313.41
2023-01-13T01:00:42.125Z,100312.50
2023-01-13T01:03:12.247Z,100325.25
2023-01-13T01:05:39.852Z,100325.41
2023-01-13T01:08:06.354Z,100331.00
2023-01-13T01:10:32.936Z,100333.47
2023-01-13T01:12:59.461Z,100333.72
2023-01-13T01:15:26.651Z,100338.06
2023-01-13T01:17:53.155Z,100339.91
2023-01-13T01:20:19.707Z,100333.50
2023-01-13T01:22:46.277Z,100344.91
2023-01-13T01:25:12.777Z,100331.06
2023-01-13T01:27:39.248Z,100336.06
2023-01-13T01:30:06.305Z,100350.97
2023-01-13T01:32:34.793Z,100369.63
2023-01-13T01:35:01.314Z,100365.16
2023-01-13T01:37:27.896Z,100376.78
2023-01-13T01:39:54.538Z,100383.00
2023-01-13T01:42:41.254Z,100364.47
2023-01-13T01:45:15.442Z,100376.72
2023-01-13T01:47:42.863Z,100387.72
2023-01-13T01:50:10.699Z,100418.94
2023-01-13T01:52:41.839Z,100437.44
2023-01-13T01:55:22.544Z,100433.97
2023-01-13T01:58:01.997Z,100442.75
2023-01-13T02:00:29.644Z,100447.53
2023-01-13T02:02:57.230Z,100443.97
2023-01-13T02:05:24.266Z,100445.88
2023-01-13T02:07:54.400Z,100451.19
2023-01-13T02:10:23.467Z,100450.66
2023-01-13T02:12:51.606Z,100465.84
2023-01-13T02:15:27.174Z,100465.75
2023-01-13T02:18:19.748Z,100470.16
2023-01-13T02:21:05.514Z,100478.50
2023-01-13T02:24:05.881Z,100467.69
2023-01-13T02:26:59.824Z,100470.47
2023-01-13T02:29:47.839Z,100480.34
2023-01-13T02:32:29.043Z,100480.13
2023-01-13T02:35:05.770Z,100486.81
2023-01-13T02:37:36.534Z,100496.34
2023-01-13T02:40:08.255Z,100489.88
2023-01-13T02:42:59.207Z,100500.91
2023-01-13T02:45:34.317Z,100500.75
2023-01-13T02:48:05.478Z,100509.34
2023-01-13T02:50:40.103Z,100503.53
2023-01-13T02:53:13.683Z,100517.66
2023-01-13T02:55:50.333Z,100517.84
2023-01-13T02:58:24.722Z,100523.16
2023-01-13T03:00:51.369Z,100519.84
2023-01-13T03:03:18.028Z,100524.22
2023-01-13T03:05:48.190Z,100527.34
2023-01-13T03:08:23.470Z,100525.03
2023-01-13T03:11:15.035Z,100536.09
2023-01-13T03:14:06.560Z,100542.25
2023-01-13T03:16:48.369Z,100540.66
2023-01-13T03:19:17.839Z,100537.22
2023-01-13T03:21:57.185Z,100536.59
2023-01-13T03:24:36.032Z,100531.31
2023-01-13T03:27:06.873Z,100537.84
2023-01-13T03:29:48.747Z,100531.25
2023-01-13T03:32:17.389Z,100533.03
2023-01-13T03:34:50.494Z,100533.09
2023-01-13T03:37:21.570Z,100527.13
2023-01-13T03:39:54.387Z,100513.66
2023-01-13T03:42:24.900Z,100511.97
2023-01-13T03:45:08.139Z,100521.13
2023-01-13T03:47:55.490Z,100518.84
2023-01-13T03:50:34.177Z,100528.38
2023-01-13T03:53:11.965Z,100530.63
2023-01-13T03:55:44.453Z,100526.69
2023-01-13T03:58:21.864Z,100521.47
2023-01-13T04:00:56.648Z,100520.41
2023-01-13T04:03:30.968Z,100532.44
2023-01-13T04:06:13.524Z,100524.31
2023-01-13T04:08:49.211Z,100531.06
2023-01-13T04:11:24.846Z,100522.63
2023-01-13T04:13:53.598Z,100522.56
2023-01-13T04:16:20.298Z,100517.34
2023-01-13T04:18:49.892Z,100538.72
2023-01-13T04:21:16.432Z,100530.28
2023-01-13T04:23:43.024Z,100532.28
2023-01-13T04:26:09.595Z,100529.88
2023-01-13T04:28:36.095Z,100537.97
2023-01-13T04:31:02.650Z,100537.84
2023-01-13T04:33:29.687Z,100539.34
2023-01-13T04:35:56.266Z,100537.69
2023-01-13T04:38:23.266Z,100536.94
2023-01-13T04:40:49.851Z,100528.50
2023-01-13T04:43:16.934Z,100524.44
2023-01-13T04:45:43.835Z,100537.13
2023-01-13T04:48:11.327Z,100529.41
2023-01-13T04:50:37.961Z,100537.84
2023-01-13T04:53:04.570Z,100532.81
2023-01-13T04:55:32.056Z,100531.34
2023-01-13T04:58:03.716Z,100531.44
2023-01-13T05:00:32.013Z,100534.31
2023-01-13T05:02:59.877Z,100542.56
2023-01-13T05:05:27.884Z,100551.16
2023-01-13T05:07:54.675Z,100558.97
2023-01-13T05:10:23.731Z,100568.34
2023-01-13T05:13:08.782Z,100563.09
2023-01-13T05:15:53.570Z,100558.94
2023-01-13T05:18:20.855Z,100562.38
2023-01-13T05:20:47.430Z,100554.25
2023-01-13T05:23:32.631Z,100547.16
2023-01-13T05:25:59.369Z,100533.19
2023-01-13T05:28:25.846Z,100516.91
2023-01-13T05:30:52.725Z,100501.53
2023-01-13T05:33:22.812Z,100490.78
2023-01-13T05:35:49.750Z,100481.13
2023-01-13T05:38:18.043Z,100469.00
2023-01-13T05:41:03.484Z,100447.75
2023-01-13T05:43:30.219Z,100449.97
2023-01-13T05:46:01.413Z,100447.06
2023-01-13T05:48:38.618Z,100438.03
2023-01-13T05:51:07.439Z,100418.72
2023-01-13T05:53:34.391Z,100403.34
2023-01-13T05:56:04.664Z,100395.03
2023-01-13T05:58:31.369Z,100397.47
2023-01-13T06:01:06.071Z,100399.06
2023-01-13T06:03:32.784Z,100381.91
2023-01-13T06:06:01.587Z,100379.97
2023-01-13T06:08:28.729Z,100377.31
2023-01-13T06:10:55.359Z,100376.03
2023-01-13T06:13:22.238Z,100371.69
2023-01-13T06:15:49.004Z,100373.31
2023-01-13T06:18:15.579Z,100371.84
2023-01-13T06:20:42.041Z,100393.13
2023-01-13T06:23:11.023Z,100403.56
2023-01-13T06:25:44.409Z,100398.44
2023-01-13T06:28:11.082Z,100406.09
2023-01-13T06:30:46.920Z,100412.03
2023-01-13T06:33:24.704Z,100431.50
2023-01-13T06:35:55.832Z,100442.03
2023-01-13T06:38:27.169Z,100441.22
2023-01-13T06:40:54.707Z,100446.09
2023-01-13T06:43:21.631Z,100460.69
2023-01-13T06:45:52.544Z,100486.44
2023-01-13T06:48:24.495Z,100508.41
2023-01-13T06:50:51.595Z,100498.69
2023-01-13T06:53:18.110Z,100520.38
2023-01-13T06:55:44.694Z,100536.69
2023-01-13T06:58:11.766Z,100536.63
2023-01-13T07:00:38.387Z,100547.66
2023-01-13T07:03:13.509Z,100563.69
2023-01-13T07:05:41.740Z,100566.41
2023-01-13T07:08:09.111Z,100570.78
2023-01-13T07:10:37.022Z,100586.56
2023-01-13T07:13:23.406Z,100595.03
2023-01-13T07:15:57.198Z,100620.38
2023-01-13T07:18:24.630Z,100634.66
2023-01-13T07:21:02.456Z,100634.47
2023-01-13T07:23:31.544Z,100634.53
2023-01-13T07:25:59.635Z,100637.28
2023-01-13T07:28:28.713Z,100636.78
2023-01-13T07:30:55.817Z,100645.78
2023-01-13T07:33:22.748Z,100647.75
2023-01-13T07:36:02.581Z,100651.75
2023-01-13T07:38:29.676Z,100658.19
2023-01-13T07:40:56.228Z,100646.81
2023-01-13T07:43:34.873Z,100640.94
2023-01-13T07:46:06.235Z,100650.22
2023-01-13T07:48:34.373Z,100638.25
2023-01-13T07:51:05.811Z,100638.38
2023-01-13T07:53:33.033Z,100634.16
2023-01-13T07:56:00.232Z,100629.78
2023-01-13T07:58:27.136Z,100611.16
2023-01-13T08:00:54.394Z,100600.22
2023-01-13T08:03:22.315Z,100601.25
2023-01-13T08:05:48.916Z,100601.63
2023-01-13T08:08:15.880Z,100596.63
2023-01-13T08:10:43.742Z,100593.38
2023-01-13T08:13:22.462Z,100588.66
2023-01-13T08:15:51.572Z,100593.72
2023-01-13T08:18:22.079Z,100569.16
2023-01-13T08:20:49.741Z,100562.38
2023-01-13T08:23:16.451Z,100549.00
2023-01-13T08:25:43.033Z,100544.75
2023-01-13T08:28:09.660Z,100545.13
2023-01-13T08:30:36.491Z,100524.66
2023-01-13T08:33:07.225Z,100511.19
2023-01-13T08:35:35.611Z,100504.53
2023-01-13T08:38:02.151Z,100503.25
2023-01-13T08:40:28.799Z,100513.97
2023-01-13T08:42:56.371Z,100511.22
2023-01-13T08:45:22.952Z,100516.78
2023-01-13T08:47:49.537Z,100510.41
2023-01-13T08:50:16.221Z,100519.16
2023-01-13T08:52:43.337Z,100511.34
2023-01-13T08:55:10.673Z,100509.66
2023-01-13T08:57:37.455Z,100507.56
2023-01-13T09:00:06.511Z,100507.91
2023-01-13T09:02:34.053Z,100511.94
2023-01-13T09:05:03.681Z,100490.88
2023-01-13T09:07:31.407Z,100470.22
2023-01-13T09:09:57.976Z,100456.63
2023-01-13T09:12:43.714Z,100425.75
2023-01-13T09:15:10.653Z,100411.19
2023-01-13T09:17:37.181Z,100404.69
2023-01-13T09:20:04.604Z,100393.94
2023-01-13T09:22:31.137Z,100386.56
2023-01-13T09:24:57.878Z,100382.34
2023-01-13T09:27:24.444Z,100380.72
2023-01-13T09:29:51.032Z,100375.28
2023-01-13T09:32:17.587Z,100370.19
2023-01-13T09:35:02.532Z,100371.13
2023-01-13T09:37:34.243Z,100371.28
2023-01-13T09:40:01.733Z,100365.06
2023-01-13T09:43:11.070Z,100363.47
2023-01-13T09:45:47.753Z,100360.47
2023-01-13T09:48:22.024Z,100362.78
2023-01-13T09:50:58.451Z,100368.81
2023-01-13T09:53:38.810Z,100360.63
2023-01-13T09:56:06.185Z,100365.69
2023-01-13T09:58:33.023Z,100355.75
2023-01-13T10:01:17.925Z,100361.47
2023-01-13T10:03:45.212Z,100362.81
2023-01-13T10:06:30.435Z,100350.13
2023-01-13T10:08:57.673Z,100354.47
2023-01-13T10:11:43.939Z,100361.66
2023-01-13T10:14:22.465Z,100370.75
2023-01-13T10:17:08.390Z,100371.78
2023-01-13T10:19:42.585Z,100381.22
2023-01-13T10:22:23.728Z,100387.56
2023-01-13T10:24:59.076Z,100397.97
2023-01-13T10:27:36.427Z,100412.00
2023-01-13T10:30:17.425Z,100426.81
2023-01-13T10:32:52.865Z,100444.09
2023-01-13T10:35:48.667Z,100452.00
2023-01-13T10:38:39.647Z,100470.72
2023-01-13T10:41:18.395Z,100481.31
2023-01-13T10:44:08.388Z,100484.81
2023-01-13T10:46:59.351Z,100493.56
2023-01-13T10:49:38.805Z,100513.53
2023-01-13T10:52:26.397Z,100525.47
2023-01-13T10:54:54.520Z,100540.28
2023-01-13T10:57:24.141Z,100547.75
2023-01-13T10:59:51.385Z,100569.59
2023-01-13T11:02:26.523Z,100585.03
2023-01-13T11:04:53.295Z,100600.25
2023-01-13T11:07:31.527Z,100613.78
2023-01-13T11:10:10.033Z,100625.44
2023-01-13T11:13:11.553Z,100642.94
2023-01-13T11:15:43.878Z,100664.66
2023-01-13T11:18:28.883Z,100687.94
2023-01-13T11:20:58.908Z,100699.78
2023-01-13T11:23:34.005Z,100725.53
2023-01-13T11:26:19.320Z,100721.69
2023-01-13T11:29:08.524Z,100724.47
2023-01-13T11:31:42.523Z,100728.50
2023-01-13T11:34:27.332Z,100729.66
2023-01-13T11:36:57.026Z,100729.00
2023-01-13T11:40:05.419Z,100732.69
2023-01-13T11:42:54.665Z,100737.66
2023-01-13T11:45:44.035Z,100739.00
2023-01-13T11:48:22.505Z,100742.69
2023-01-13T11:51:04.324Z,100751.44
2023-01-13T11:53:53.444Z,100740.41
2023-01-13T11:56:31.908Z,100736.34
2023-01-13T11:59:12.411Z,100751.56
2023-01-13T12:02:02.487Z,100758.06
2023-01-13T12:04:49.065Z,100765.72
2023-01-13T12:07:41.865Z,100771.09
2023-01-13T12:10:13.658Z,100765.66
2023-01-13T12:12:47.519Z,100760.84
2023-01-13T12:15:16.796Z,100758.09
2023-01-13T12:17:55.525Z,100761.66
2023-01-13T12:20:35.987Z,100769.31
2023-01-13T12:23:11.598Z,100768.72
2023-01-13T12:25:43.820Z,100769.00
2023-01-13T12:28:17.119Z,100762.00
2023-01-13T12:30:55.000Z,100780.38
2023-01-13T12:33:29.371Z,100767.84
2023-01-13T12:36:33.512Z,100776.78
2023-01-13T12:39:14.460Z,100785.81
2023-01-13T12:42:08.164Z,100777.03
2023-01-13T12:44:34.677Z,100774.88
2023-01-13T12:47:01.260Z,100781.78
2023-01-13T12:49:33.241Z,100774.91
2023-01-13T12:52:03.394Z,100771.56
2023-01-13T12:54:45.084Z,100763.41
2023-01-13T12:57:21.617Z,100758.53
2023-01-13T13:00:03.260Z,100753.25
2023-01-13T13:02:40.815Z,100753.31
2023-01-13T13:05:22.664Z,100748.56
2023-01-13T13:07:54.772Z,100748.00
2023-01-13T13:10:31.520Z,100764.66
2023-01-13T13:13:18.340Z,100760.19
2023-01-13T13:15:47.517Z,100761.84
2023-01-13T13:18:16.906Z,100766.13
2023-01-13T13:21:05.980Z,100761.53
2023-01-13T13:23:51.222Z,100758.50
2023-01-13T13:26:36.139Z,100759.44
2023-01-13T13:29:28.601Z,100765.75
2023-01-13T13:32:12.712Z,100777.06
2023-01-13T13:35:07.509Z,100772.72
2023-01-13T13:38:07.876Z,100769.03
2023-01-13T13:40:59.314Z,100771.16
2023-01-13T13:43:46.345Z,100773.47
2023-01-13T13:46:49.217Z,100766.22
2023-01-13T13:49:21.180Z,100762.50
2023-01-13T13:52:01.264Z,100764.50
2023-01-13T13:54:28.480Z,100759.84
2023-01-13T13:56:55.169Z,100765.59
2023-01-13T13:59:26.179Z,100775.59
2023-01-13T14:02:01.414Z,100781.38
2023-01-13T14:04:33.752Z,100769.22
2023-01-13T14:07:04.980Z,100776.09
2023-01-13T14:09:41.476Z,100781.81
2023-01-13T14:12:18.792Z,100774.16
2023-01-13T14:14:47.486Z,100780.19
2023-01-13T14:17:26.409Z,100787.19
2023-01-13T14:20:08.004Z,100781.81
2023-01-13T14:22:34.623Z,100780.13
2023-01-13T14:25:02.083Z,100787.44
2023-01-13T14:27:30.557Z,100786.75
2023-01-13T14:30:00.483Z,100797.00
2023-01-13T14:32:35.096Z,100801.19
2023-01-13T14:35:01.897Z,100795.28
2023-01-13T14:37:28.360Z,100788.09
2023-01-13T14:39:55.456Z,100791.94
2023-01-13T14:42:22.255Z,100797.66
2023-01-13T14:44:50.984Z,100800.19
2023-01-13T14:47:22.488Z,100811.31
2023-01-13T14:49:59.249Z,100809.41
2023-01-13T14:52:28.187Z,100820.34
2023-01-13T14:55:10.247Z,100813.38
2023-01-13T14:57:39.559Z,100828.06
2023-01-13T15:00:15.251Z,100834.41
2023-01-13T15:02:57.190Z,100824.69
2023-01-13T15:05:30.870Z,100829.81
2023-01-13T15:08:02.377Z,100831.53
2023-01-13T15:11:12.622Z,100828.06
2023-01-13T15:13:50.229Z,100830.97
2023-01-13T15:16:25.407Z,100823.31
2023-01-13T15:18:53.643Z,100820.63
2023-01-13T15:21:20.797Z,100815.38
2023-01-13T15:23:47.585Z,100813.75
2023-01-13T15:26:19.776Z,100823.00
2023-01-13T15:28:46.871Z,100828.13
2023-01-13T15:31:13.794Z,100831.66
2023-01-13T15:33:40.567Z,100829.19
2023-01-13T15:36:20.834Z,100829.09
2023-01-13T15:38:47.370Z,100829.78
2023-01-13T15:41:14.003Z,100825.84
2023-01-13T15:43:59.081Z,100831.50
2023-01-13T15:46:37.979Z,100835.75
2023-01-13T15:49:34.961Z,100845.13
2023-01-13T15:52:12.125Z,100841.75
2023-01-13T15:54:38.662Z,100852.84
2023-01-13T15:57:05.865Z,100849.34
2023-01-13T15:59:33.876Z,100844.16
2023-01-13T16:02:00.394Z,100855.22
2023-01-13T16:04:26.913Z,100844.84
2023-01-13T16:06:53.518Z,100850.81
2023-01-13T16:09:20.097Z,100846.66
2023-01-13T16:11:46.737Z,100852.28
2023-01-13T16:14:13.226Z,100861.56
2023-01-13T16:16:40.798Z,100860.56
2023-01-13T16:19:07.455Z,100869.06
2023-01-13T16:21:34.241Z,100862.13
2023-01-13T16:24:00.808Z,100871.41
2023-01-13T16:26:29.922Z,100872.94
2023-01-13T16:28:58.249Z,100872.94
2023-01-13T16:31:26.640Z,100885.41
2023-01-13T16:33:53.490Z,100890.38
2023-01-13T16:36:21.347Z,100884.22
2023-01-13T16:38:49.584Z,100877.28
2023-01-13T16:41:16.295Z,100872.09
2023-01-13T16:43:43.179Z,100865.06
2023-01-13T16:46:26.084Z,100867.34
2023-01-13T16:48:54.492Z,100857.09
2023-01-13T16:51:22.170Z,100856.13
2023-01-13T16:53:49.601Z,100847.56
2023-01-13T16:56:33.996Z,100838.06
2023-01-13T16:59:07.570Z,100843.69
2023-01-13T17:01:37.433Z,100836.38
2023-01-13T17:04:06.380Z,100827.84
2023-01-13T17:06:37.538Z,100825.03
2023-01-13T17:09:07.505Z,100816.38
2023-01-13T17:11:34.396Z,100810.09
2023-01-13T17:14:01.082Z,100814.13
2023-01-13T17:16:45.410Z,100801.06
2023-01-13T17:19:12.270Z,100797.56
2023-01-13T17:21:38.783Z,100801.19
2023-01-13T17:24:09.605Z,100803.16
2023-01-13T17:26:54.273Z,100800.53
2023-01-13T17:29:23.389Z,100798.78
2023-01-13T17:31:50.723Z,100799.94
2023-01-13T17:34:18.020Z,100790.94
2023-01-13T17:36:44.824Z,100784.19
2023-01-13T17:39:20.308Z,100782.31
2023-01-13T17:41:47.531Z,100777.13
2023-01-13T17:44:15.081Z,100783.69
2023-01-13T17:46:42.366Z,100779.41
2023-01-13T17:49:17.014Z,100777.84
2023-01-13T17:51:44.985Z,100780.41
2023-01-13T17:54:12.512Z,100790.69
2023-01-13T17:56:41.066Z,100781.19
2023-01-13T17:59:10.219Z,100784.47
2023-01-13T18:01:37.594Z,100801.63
2023-01-13T18:04:04.753Z,100801.63
2023-01-13T18:06:31.263Z,100803.13
2023-01-13T18:08:58.954Z,100799.50
2023-01-13T18:11:26.662Z,100799.44
2023-01-13T18:13:56.919Z,100791.59
2023-01-13T18:16:25.316Z,100785.97
2023-01-13T18:19:15.118Z,100775.66
2023-01-13T18:22:01.106Z,100773.75
2023-01-13T18:24:46.353Z,100759.97
2023-01-13T18:27:22.879Z,100754.19
2023-01-13T18:29:54.914Z,100754.66
2023-01-13T18:32:23.178Z,100756.28
2023-01-13T18:34:53.936Z,100757.97
2023-01-13T18:37:25.758Z,100746.91
2023-01-13T18:39:52.746Z,100753.59
2023-01-13T18:42:37.659Z,100751.28
2023-01-13T18:45:04.354Z,100762.81
2023-01-13T18:47:31.197Z,100754.47
2023-01-13T18:49:57.973Z,100763.25
2023-01-13T18:52:25.228Z,100751.56
2023-01-13T18:54:52.595Z,100730.81
2023-01-13T18:57:21.380Z,100710.19
2023-01-13T18:59:48.229Z,100692.22
2023-01-13T19:02:19.605Z,100676.91
2023-01-13T19:04:47.360Z,100670.84
2023-01-13T19:07:21.868Z,100680.66
2023-01-13T19:09:51.833Z,100685.38
2023-01-13T19:12:26.017Z,100687.81
2023-01-13T19:14:56.467Z,100679.00
2023-01-13T19:17:24.546Z,100690.84
2023-01-13T19:19:54.338Z,100694.34
2023-01-13T19:22:23.433Z,100688.50
2023-01-13T19:24:50.525Z,100684.78
2023-01-13T19:27:19.152Z,100692.31
2023-01-13T19:29:52.019Z,100688.91
2023-01-13T19:32:21.104Z,100680.94
2023-01-13T19:34:50.947Z,100674.28
2023-01-13T19:37:18.427Z,100662.13
2023-01-13T19:39:45.429Z,100661.06
2023-01-13T19:42:30.727Z,100645.41
2023-01-13T19:45:15.915Z,100634.16
2023-01-13T19:47:45.528Z,100630.44
2023-01-13T19:50:13.631Z,100630.03
2023-01-13T19:52:42.042Z,100622.91
2023-01-13T19:55:09.672Z,100619.66
2023-01-13T19:57:36.992Z,100613.34
2023-01-13T20:00:06.481Z,100616.47
2023-01-13T20:02:33.109Z,100610.34
2023-01-13T20:05:01.945Z,100612.84
2023-01-13T20:07:30.353Z,100607.31
2023-01-13T20:09:57.555Z,100607.38
2023-01-13T20:12:25.334Z,100604.69
2023-01-13T20:14:52.251Z,100592.75
2023-01-13T20:17:20.852Z,100587.19
2023-01-13T20:19:47.900Z,100594.50
2023-01-13T20:22:15.072Z,100586.47
2023-01-13T20:24:42.027Z,100581.13
2023-01-13T20:27:08.847Z,100576.09
2023-01-13T20:29:35.625Z,100570.41
2023-01-13T20:32:36.666Z,100568.47
2023-01-13T20:35:03.299Z,100569.22
2023-01-13T20:37:29.844Z,100559.22
2023-01-13T20:39:58.083Z,100548.72
2023-01-13T20:42:30.525Z,100535.00
2023-01-13T20:45:01.066Z,100537.03
2023-01-13T20:47:28.981Z,100527.38
2023-01-13T20:49:55.619Z,100523.28
2023-01-13T20:52:22.214Z,100517.88
2023-01-13T20:54:48.762Z,100519.16
2023-01-13T20:57:15.286Z,100516.00
2023-01-13T20:59:41.920Z,100515.25
2023-01-13T21:02:13.151Z,100515.75
2023-01-13T21:04:40.521Z,100515.81
2023-01-13T21:07:07.489Z,100515.38
2023-01-13T21:09:34.204Z,100516.84
2023-01-13T21:12:18.988Z,100514.91
2023-01-13T21:15:04.355Z,100515.19
2023-01-13T21:17:49.137Z,100513.81
2023-01-13T21:20:15.932Z,100516.00
2023-01-13T21:22:46.794Z,100517.09
2023-01-13T21:25:14.103Z,100521.47
2023-01-13T21:27:41.290Z,100514.78
2023-01-13T21:30:08.350Z,100505.13
2023-01-13T21:32:34.855Z,100509.84
2023-01-13T21:35:02.111Z,100508.13
2023-01-13T21:37:28.603Z,100526.06
2023-01-13T21:39:55.503Z,100531.69
2023-01-13T21:42:40.568Z,100534.16
2023-01-13T21:45:26.064Z,100543.44
2023-01-13T21:47:52.594Z,100551.75
2023-01-13T21:50:21.789Z,100535.47
2023-01-13T21:52:50.365Z,100532.25
2023-01-13T21:55:17.213Z,100537.69
2023-01-13T21:57:47.914Z,100545.56
2023-01-13T22:00:15.858Z,100551.38
2023-01-13T22:02:43.014Z,100540.53
2023-01-13T22:05:12.218Z,100544.81
2023-01-13T22:07:39.828Z,100538.69
2023-01-13T22:10:09.228Z,100535.34
2023-01-13T22:12:35.933Z,100546.13
2023-01-13T22:15:02.826Z,100543.94
2023-01-13T22:17:31.609Z,100531.94
2023-01-13T22:19:59.195Z,100521.09
2023-01-13T22:22:26.370Z,100513.50
2023-01-13T22:24:53.906Z,100505.84
2023-01-13T22:27:26.123Z,100501.50
2023-01-13T22:29:53.063Z,100505.63
2023-01-13T22:32:21.029Z,100496.38
2023-01-13T22:34:47.646Z,100486.75
2023-01-13T22:37:14.351Z,100479.00
2023-01-13T22:39:40.887Z,100466.31
2023-01-13T22:42:07.678Z,100463.69
2023-01-13T22:44:34.205Z,100440.78
2023-01-13T22:47:00.777Z,100433.00
2023-01-13T22:49:27.346Z,100430.50
2023-01-13T22:51:54.180Z,100430.66
2023-01-13T22:54:21.379Z,100429.63
2023-01-13T22:56:47.838Z,100438.38
2023-01-13T22:59:15.960Z,100425.44
2023-01-13T23:01:42.985Z,100415.31
2023-01-13T23:04:12.967Z,100419.84
2023-01-13T23:06:40.133Z,100417.00
2023-01-13T23:09:07.774Z,100398.09
2023-01-13T23:11:34.651Z,100404.16
2023-01-13T23:14:04.343Z,100413.13
2023-01-13T23:16:33.785Z,100413.13
2023-01-13T23:19:00.317Z,100412.19
2023-01-13T23:21:30.386Z,100426.00
2023-01-13T23:23:58.687Z,100430.16
2023-01-13T23:26:26.188Z,100426.88
2023-01-13T23:28:53.306Z,100429.44
2023-01-13T23:31:22.110Z,100437.78
2023-01-13T23:33:49.013Z,100441.66
2023-01-13T23:36:18.591Z,100438.41
2023-01-13T23:38:46.361Z,100436.63
2023-01-13T23:41:16.042Z,100432.69
2023-01-13T23:43:42.570Z,100444.88
2023-01-13T23:46:12.427Z,100458.44
2023-01-13T23:48:39.045Z,100453.91
2023-01-13T23:51:08.736Z,100445.91
2023-01-13T23:53:40.220Z,100435.78
2023-01-13T23:56:11.229Z,100427.91
2023-01-13T23:58:37.857Z,100428.13
